Home > Products > Valid Products > MTR

000
SAUS43 KDLH 291457
MTRGNA
METAR KGNA 291456Z AUTO 33007KT 290V350 22/14 A2999 RMK AO1 SLP150
T02220139 58002 $





000
SAUS43 KDLH 291357
MTRGNA
METAR KGNA 291356Z AUTO 33008G18KT 270V350 20/13 A3000 RMK AO1
SLP155 T02000128 $





000
SAUS43 KDLH 291257
MTRGNA
METAR KGNA 291256Z AUTO VRB06KT 18/12 A3001 RMK AO1 SLP158 T01830117
$





000
SAUS43 KDLH 291157
MTRGNA
METAR KGNA 291156Z AUTO VRB03KT 18/11 A3000 RMK AO1 SLP155 70001
T01830111 10183 20172 53005 $





000
SAUS43 KDLH 291057
MTRGNA
METAR KGNA 291056Z AUTO VRB03KT 18/11 A2999 RMK AO1 SLP152 T01780111
$





000
SAUS43 KDLH 290957
MTRGNA
METAR KGNA 290956Z AUTO 34010G25KT 17/12 A2998 RMK AO1 SLP145
T01720117 $





000
SAUS43 KDLH 290857
MTRGNA
METAR KGNA 290856Z AUTO 35011G21KT 17/12 A2998 RMK AO1 SLP148
T01720117 56010 $





000
SAUS43 KDLH 290757
MTRGNA
METAR KGNA 290756Z AUTO 34011G25KT 18/12 A2999 RMK AO1 SLP148
T01780117 $





000
SAUS43 KDLH 290658
MTRGNA
METAR KGNA 290656Z AUTO 33009G17KT 18/11 A3000 RMK AO1 SLP152
T01780111 $





000
SAUS43 KDLH 290557
MTRGNA
METAR KGNA 290556Z AUTO 34007G17KT 18/11 A3001 RMK AO1 SLP157
T01780106 10194 20122 402500122 56017 $





000
SAUS43 KDLH 290458
MTRGNA
METAR KGNA 290456Z AUTO 34009G17KT 18/12 A3002 RMK AO1 SLP161
T01780117 $





000
SAUS43 KDLH 290357
MTRGNA
METAR KGNA 290356Z AUTO VRB03KT 17/12 A3004 RMK AO1 SLP167 T01720122
$





000
SAUS43 KDLH 290258
MTRGNA
METAR KGNA 290256Z AUTO 01009G16KT 340V040 19/12 A3006 RMK AO1
SLP174 T01940117 53015 $





000
SAUS43 KDLH 290157
MTRGNA
METAR KGNA 290156Z AUTO 00000KT 14/12 A3003 RMK AO1 SLP167 T01440117
$





000
SAUS43 KDLH 290057
MTRGNA
METAR KGNA 290056Z AUTO 24003KT 17/13 A3003 RMK AO1 SLP165 T01670128
$





000
SAUS43 KDLH 282357
MTRGNA
METAR KGNA 282356Z AUTO 00000KT 16/11 A3002 RMK AO1 SLP162 60001
T01560111 10250 20139 58006 $





000
SAUS43 KDLH 282257
MTRGNA
METAR KGNA 282256Z AUTO 00000KT 14/10 A3003 RMK AO1 SLP166 T01440100
$





000
SAUS43 KDLH 282157
MTRGNA
METAR KGNA 282156Z AUTO 35007KT 310V040 22/14 A3003 RMK AO1 SLP166
P0001 T02220144 $





000
SAUS43 KDLH 282057
MTRGNA
METAR KGNA 282056Z AUTO 34009G14KT 320V030 24/13 A3004 RMK AO1
SLP165 T02390128 56012 $





000
SAUS43 KDLH 281957
MTRGNA
METAR KGNA 281956Z AUTO 31006KT 24/13 A3005 RMK AO1 SLP168 T02440133
$





000
SAUS43 KDLH 281857
MTRGNA
METAR KGNA 281856Z AUTO VRB03KT 22/12 A3006 RMK AO1 SLP175 T02220122
$





000
SAUS43 KDLH 281757
MTRGNA
METAR KGNA 281756Z AUTO 24003KT 21/11 A3007 RMK AO1 SLP180 T02060111
10228 20161 58007





000
SAUS43 KDLH 281657
MTRGNA
METAR KGNA 281656Z AUTO VRB06KT 21/11 A3009 RMK AO1 SLP188 T02110111
$





000
SAUS43 KDLH 281557
MTRGNA
METAR KGNA 281556Z AUTO VRB04KT 22/11 A3009 RMK AO1 SLP187 T02170111
$





000
SAUS43 KDLH 281457
MTRGNA
METAR KGNA 281456Z AUTO 33007KT 240V350 22/12 A3009 RMK AO1 SLP188
T02220122 58001 $





000
SAUS43 KDLH 281357
MTRGNA
METAR KGNA 281356Z AUTO VRB03KT 21/13 A3010 RMK AO1 SLP192 T02060128
$





000
SAUS43 KDLH 281257
MTRGNA
METAR KGNA 281256Z AUTO VRB05KT 18/13 A3010 RMK AO1 SLP192 T01780128
$





000
SAUS43 KDLH 281157
MTRGNA
METAR KGNA 281156Z AUTO 33006KT 16/12 A3010 RMK AO1 SLP191 70012
T01610117 10161 20139 51005 $





000
SAUS43 KDLH 281057
MTRGNA
METAR KGNA 281056Z AUTO 33007KT 15/11 A3009 RMK AO1 SLP186 T01500111
$





000
SAUS43 KDLH 280957
MTRGNA
METAR KGNA 280956Z AUTO 33007KT 15/11 A3009 RMK AO1 SLP187 T01500106
$





000
SAUS43 KDLH 280857
MTRGNA
METAR KGNA 280856Z AUTO 33008KT 15/11 A3008 RMK AO1 SLP182 T01500106
53002 $





000
SAUS43 KDLH 280757
MTRGNA
METAR KGNA 280756Z AUTO 33007KT 15/11 A3008 RMK AO1 SLP180 T01500111
$





000
SAUS43 KDLH 280657
MTRGNA
METAR KGNA 280656Z AUTO 33006KT 15/11 A3007 RMK AO1 SLP180 T01500111
$





000
SAUS43 KDLH 280557
MTRGNA
METAR KGNA 280556Z AUTO 33005KT 14/11 A3008 RMK AO1 SLP182 T01390111
10139 20094 402330094 50001 $





000
SAUS43 KDLH 280457
MTRGNA
METAR KGNA 280456Z AUTO 32003KT 12/11 A3008 RMK AO1 SLP185 T01220106
$





000
SAUS43 KDLH 280357
MTRGNA
METAR KGNA 280356Z AUTO 00000KT 12/09 A3008 RMK AO1 SLP185 T01170094
$





000
SAUS43 KDLH 280257
MTRGNA
METAR KGNA 280256Z AUTO 00000KT 10/08 A3007 RMK AO1 SLP184 T01000083
51018 $





000
SAUS43 KDLH 280158
MTRGNA
METAR KGNA 280156Z AUTO 00000KT 10/08 A3005 RMK AO1 SLP178 T01000083
$





000
SAUS43 KDLH 280057
MTRGNA
METAR KGNA 280056Z AUTO 00000KT 10/08 A3004 RMK AO1 SLP174 T01000078
$





000
SAUS43 KDLH 272358
MTRGNA
METAR KGNA 272356Z AUTO 06005KT 12/08 A3002 RMK AO1 SLP166 T01220083
10233 20117 53022 $





000
SAUS43 KDLH 272257
MTRGNA
METAR KGNA 272256Z AUTO VRB05KT 23/11 A2998 RMK AO1 SLP150 T02280111
$





000
SAUS43 KDLH 272157
MTRGNA
METAR KGNA 272156Z AUTO 20004KT 15/09 A2997 RMK AO1 SLP149 T01500089
$





000
SAUS43 KDLH 272057
MTRGNA
METAR KGNA 272056Z AUTO 03007KT 330V050 22/11 A2995 RMK AO1 SLP138
T02220106 51012 $





000
SAUS43 KDLH 271957
MTRGNA
METAR KGNA 271956Z AUTO VRB03KT 22/12 A2994 RMK AO1 SLP135 T02220122
$





000
SAUS43 KDLH 271857
MTRGNA
METAR KGNA 271856Z AUTO 05010G15KT 21/12 A2993 RMK AO1 SLP134
T02060122 $





000
SAUS43 KDLH 271757
MTRGNA
METAR KGNA 271756Z AUTO 03007G17KT 19/12 A2992 RMK AO1 SLP129 60012
T01890122 10189 20106 51029 $





000
SAUS43 KDLH 271657
MTRGNA
METAR KGNA 271656Z AUTO 04009G20KT 18/13 A2989 RMK AO1 SLP121
T01830128 $





000
SAUS43 KDLH 271557
MTRGNA
METAR KGNA 271556Z AUTO 05009G17KT 17/13 A2986 RMK AO1 SLP111
T01720133 $





000
SAUS43 KDLH 271457
MTRGNA
METAR KGNA 271456Z AUTO 04010G18KT 15/14 A2983 RMK AO1 SLP099 P0007
60012 T01500139 53029 $





000
SAUS43 KDLH 271357
MTRGNA
METAR KGNA 271356Z AUTO 07005KT 12/11 A2980 RMK AO1 SLP093 P0005
T01170111 $





000
SAUS43 KDLH 271257
MTRGNA
METAR KGNA 271256Z AUTO 06005KT 12/11 A2976 RMK AO1 SLP078 T01170111
$





000
SAUS43 KDLH 271157
MTRGNA
METAR KGNA 271156Z AUTO 07008KT 11/11 A2974 RMK AO1 SLP072 70035
T01110106 10144 20094 53008 $





000
SAUS43 KDLH 271057
MTRGNA
METAR KGNA 271056Z AUTO 07008KT 12/11 A2973 RMK AO1 SLP066 T01170111
$





000
SAUS43 KDLH 270957
MTRGNA
METAR KGNA 270956Z AUTO 07005KT 13/13 A2971 RMK AO1 SLP059 T01330133
$





000
SAUS43 KDLH 270857
MTRGNA
METAR KGNA 270856Z AUTO 00000KT 12/11 A2972 RMK AO1 SLP061 T01220111
58000 $





000
SAUS43 KDLH 270757
MTRGNA
METAR KGNA 270756Z AUTO 00000KT 11/10 A2972 RMK AO1 SLP063 T01060100
$





000
SAUS43 KDLH 270657
MTRGNA
METAR KGNA 270656Z AUTO 06003KT 11/10 A2974 RMK AO1 SLP065 T01060100
$





000
SAUS43 KDLH 270557
MTRGNA
METAR KGNA 270556Z AUTO 22003KT 09/09 A2972 RMK AO1 SLP058 60035
T00940089 10183 20094 402940094 55017 $





000
SAUS43 KDLH 270457
MTRGNA
METAR KGNA 270456Z AUTO 07006KT 11/11 A2970 RMK AO1 SLP052 P0002
T01110106 $





000
SAUS43 KDLH 270357
MTRGNA
METAR KGNA 270356Z AUTO 05009KT 12/11 A2971 RMK AO1 SLP059 P0021
T01170111 $





000
SAUS43 KDLH 270257
MTRGNA
METAR KGNA 270256Z AUTO 33005KT 12/12 A2977 RMK AO1 SLP080 P0012
60012 T01220117 53024 $





000
SAUS43 KDLH 270157
MTRGNA
METAR KGNA 270156Z AUTO 06006KT 12/09 A2969 RMK AO1 SLP054 T01220094
$





000
SAUS43 KDLH 270057
MTRGNA
METAR KGNA 270056Z AUTO 00000KT 13/09 A2971 RMK AO1 SLP059 T01330094
$





000
SAUS43 KDLH 262357
MTRGNA
METAR KGNA 262356Z AUTO 00000KT 13/09 A2970 RMK AO1 SLP055 T01280094
10294 20122 56009 $





000
SAUS43 KDLH 262257
MTRGNA
METAR KGNA 262256Z AUTO 21005KT 13/09 A2970 RMK AO1 SLP057 T01330094
$





000
SAUS43 KDLH 262157
MTRGNA
METAR KGNA 262156Z AUTO 23006KT 16/10 A2971 RMK AO1 SLP059 T01610100
$





000
SAUS43 KDLH 262057
MTRGNA
METAR KGNA 262056Z AUTO 25004KT 16/10 A2972 RMK AO1 SLP064 T01560100
50006 $





000
SAUS43 KDLH 261957
MTRGNA
METAR KGNA 261956Z AUTO 25007KT 16/10 A2973 RMK AO1 SLP067 T01560100
$





000
SAUS43 KDLH 261857
MTRGNA
METAR KGNA 261856Z AUTO 29/11 A2971 RMK AO1 SLP055 T02940111





000
SAUS43 KDLH 261757
MTRGNA
METAR KGNA 261756Z AUTO 32008KT 290V360 28/12 A2971 RMK AO1 SLP053
T02830122 10289 20111 55004





000
SAUS43 KDLH 261657
MTRGNA
METAR KGNA 261656Z AUTO VRB04KT 28/13 A2970 RMK AO1 SLP052 T02780128





000
SAUS43 KDLH 261557
MTRGNA
METAR KGNA 261556Z AUTO 18/12 A2971 RMK AO1 SLP059 T01780122





    US Dept of Commerce
    National Oceanic and Atmospheric Administration
    National Weather Service
    1325 East West Highway
    Silver Spring, MD 20910
    Page Author: NWS Internet Services Team
Disclaimer
Information Quality
Credits
Glossary
Privacy Policy
Freedom of Information Act (FOIA)
About Us
Career Opportunities